Time;durP1;ratioP1;P1;durP2;ratioP2;P2;SDS_P1;SDS_P2;PMS_P1;PMS_P2;Temp;Humidity;BMP_temperature;BMP_pressure;BME280_temperature;BME280_humidity;BME280_pressure;Samples;Min_cycle;Max_cycle;Signal;HPM_P1;HPM_P2
2023/10/05 00:02:10;;;;;;;2.05;1.95;;;10.70;99.90;;;;;;6302658;22;20179;-82
2023/10/05 00:04:42;;;;;;;0.57;0.57;;;10.60;99.90;;;;;;6301161;22;20167;-82
2023/10/05 00:07:29;;;;;;;1.08;1.08;;;10.50;99.90;;;;;;6286946;22;20167;-81
2023/10/05 00:09:57;;;;;;;0.70;0.70;;;10.50;99.90;;;;;;6281272;22;20167;-81
2023/10/05 00:12:24;;;;;;;0.60;0.60;;;10.50;99.90;;;;;;6282063;22;20202;-81
2023/10/05 00:17:31;;;;;;;2.25;2.15;;;10.60;99.90;;;;;;6295321;22;20191;-80
2023/10/05 00:19:59;;;;;;;0.82;0.82;;;10.60;99.90;;;;;;6296115;22;20185;-83
2023/10/05 00:22:27;;;;;;;1.30;1.30;;;10.70;99.90;;;;;;6282636;22;20190;-83
2023/10/05 00:24:54;;;;;;;0.60;0.60;;;10.70;99.90;;;;;;6280636;22;20206;-83
2023/10/05 00:27:21;;;;;;;0.60;0.60;;;10.70;99.90;;;;;;6280330;22;20703;-83
2023/10/05 00:29:54;;;;;;;0.90;0.90;;;10.70;99.90;;;;;;6253685;22;20206;-83
2023/10/05 00:32:39;;;;;;;0.73;0.73;;;10.70;99.90;;;;;;6281028;22;20195;-84
2023/10/05 00:37:44;;;;;;;0.70;0.70;;;10.50;99.90;;;;;;6280747;22;20210;-84
2023/10/05 00:40:27;;;;;;;1.30;1.27;;;10.40;99.90;;;;;;6255194;22;20241;-86
2023/10/05 00:43:02;;;;;;;0.75;0.75;;;10.40;99.90;;;;;;6280853;22;20191;-84
2023/10/05 00:45:31;;;;;;;0.95;0.95;;;10.40;99.90;;;;;;6282238;22;20176;-84
2023/10/05 00:48:13;;;;;;;1.85;1.67;;;10.40;99.90;;;;;;6281331;22;20189;-84
2023/10/05 00:50:43;;;;;;;10.75;3.17;;;10.30;99.90;;;;;;6281392;22;20514;-83
2023/10/05 00:53:10;;;;;;;0.50;0.50;;;10.40;99.90;;;;;;6255292;22;20210;-84
2023/10/05 00:55:44;;;;;;;0.80;0.80;;;10.40;99.90;;;;;;6282378;22;20202;-83
2023/10/05 00:58:14;;;;;;;0.75;0.75;;;10.40;99.90;;;;;;6287966;22;20199;-85
2023/10/05 01:00:50;;;;;;;0.60;0.60;;;10.30;99.90;;;;;;6294339;22;20170;-84
2023/10/05 01:03:45;;;;;;;1.25;1.15;;;10.30;99.90;;;;;;6294449;22;20186;-84
2023/10/05 01:06:21;;;;;;;3.63;2.05;;;10.20;99.90;;;;;;6290857;22;20217;-83
2023/10/05 01:08:55;;;;;;;1.08;1.08;;;10.20;99.90;;;;;;6268789;22;20163;-83
2023/10/05 01:14:16;;;;;;;1.65;1.55;;;10.00;99.90;;;;;;6269723;22;20182;-86
2023/10/05 01:16:44;;;;;;;0.88;0.88;;;10.10;99.90;;;;;;6258054;22;20216;-85
2023/10/05 01:19:11;;;;;;;1.65;1.55;;;9.90;99.90;;;;;;6230363;22;20183;-81
2023/10/05 01:21:39;;;;;;;1.63;1.50;;;9.90;99.90;;;;;;6253954;22;20246;-81
2023/10/05 01:24:07;;;;;;;1.08;1.08;;;9.70;99.90;;;;;;6281441;22;20190;-83
2023/10/05 01:26:37;;;;;;;0.50;0.50;;;9.80;99.90;;;;;;6280595;22;20289;-81
2023/10/05 01:29:04;;;;;;;5.03;3.25;;;9.80;99.90;;;;;;6253846;22;20187;-81
2023/10/05 01:31:32;;;;;;;0.82;0.82;;;9.80;99.90;;;;;;6282077;22;20186;-82
2023/10/05 01:34:01;;;;;;;1.02;0.77;;;9.70;99.90;;;;;;6283182;22;20194;-84
2023/10/05 01:36:31;;;;;;;0.82;0.82;;;9.60;99.90;;;;;;6283131;22;20191;-85
2023/10/05 01:39:00;;;;;;;1.23;1.13;;;9.60;99.90;;;;;;6282804;22;20213;-82
2023/10/05 01:41:28;;;;;;;1.70;1.60;;;9.60;99.90;;;;;;6283820;22;20526;-84
2023/10/05 01:44:00;;;;;;;2.38;2.22;;;9.60;99.90;;;;;;6283783;22;20518;-85
2023/10/05 01:46:31;;;;;;;0.85;0.85;;;9.50;99.90;;;;;;6283847;22;20507;-85
2023/10/05 01:49:01;;;;;;;1.77;1.65;;;9.50;99.90;;;;;;6257330;22;20179;-86
2023/10/05 01:51:29;;;;;;;3.90;3.05;;;9.50;99.90;;;;;;6283220;22;20171;-85
2023/10/05 01:54:11;;;;;;;1.98;1.88;;;9.40;99.90;;;;;;6256425;22;20728;-84
2023/10/05 01:56:43;;;;;;;1.05;1.05;;;9.40;99.90;;;;;;6283343;22;20187;-84
2023/10/05 01:59:20;;;;;;;0.55;0.55;;;9.40;99.90;;;;;;6258795;22;20182;-88
2023/10/05 02:01:53;;;;;;;0.60;0.60;;;9.30;99.90;;;;;;6284283;22;20168;-85
2023/10/05 02:04:22;;;;;;;0.70;0.70;;;9.30;99.90;;;;;;6283562;22;20206;-82
2023/10/05 02:06:49;;;;;;;6.38;2.55;;;9.20;99.90;;;;;;6283284;22;20190;-86
2023/10/05 02:09:19;;;;;;;0.75;0.75;;;9.20;99.90;;;;;;6284200;22;20243;-85
2023/10/05 02:11:49;;;;;;;1.55;1.45;;;9.10;99.90;;;;;;6282932;22;20261;-84
2023/10/05 02:14:16;;;;;;;0.50;0.50;;;9.00;99.90;;;;;;6255851;22;20203;-83
2023/10/05 02:16:49;;;;;;;0.52;0.52;;;9.00;99.90;;;;;;6281965;22;20203;-85
2023/10/05 02:19:19;;;;;;;0.93;0.93;;;8.90;99.90;;;;;;6255398;22;20179;-85
2023/10/05 02:21:48;;;;;;;0.60;0.60;;;8.90;99.90;;;;;;6282990;22;20182;-85
2023/10/05 02:24:16;;;;;;;0.85;0.85;;;8.80;99.90;;;;;;6256497;22;20179;-83
2023/10/05 02:29:29;;;;;;;0.93;0.93;;;8.70;99.90;;;;;;6300542;22;20170;-83
2023/10/05 02:34:59;;;;;;;0.73;0.73;;;8.70;99.90;;;;;;6301622;22;20158;-86
2023/10/05 02:37:36;;;;;;;1.45;1.38;;;8.70;99.90;;;;;;6305010;22;20229;-88
2023/10/05 02:40:09;;;;;;;1.00;0.90;;;8.70;99.90;;;;;;6291079;22;20159;-86
2023/10/05 02:42:39;;;;;;;3.22;1.42;;;8.70;99.90;;;;;;6288523;22;20378;-86
2023/10/05 02:45:09;;;;;;;0.50;0.50;;;8.70;99.90;;;;;;6304879;22;20210;-85
2023/10/05 02:47:38;;;;;;;0.60;0.60;;;8.80;99.90;;;;;;6303114;22;20178;-83
2023/10/05 02:50:07;;;;;;;1.60;1.52;;;8.80;99.90;;;;;;6295830;22;20176;-82
2023/10/05 02:52:36;;;;;;;0.80;0.80;;;8.90;99.90;;;;;;6294617;22;20183;-82
2023/10/05 02:55:06;;;;;;;1.58;1.48;;;8.90;99.90;;;;;;6292249;22;20403;-81
2023/10/05 02:57:33;;;;;;;1.25;0.98;;;8.90;99.90;;;;;;6281452;22;20561;-82
2023/10/05 03:00:01;;;;;;;4.95;3.08;;;8.90;99.90;;;;;;6281883;22;20175;-84
2023/10/05 03:02:28;;;;;;;0.50;0.50;;;9.00;99.90;;;;;;6281892;22;20195;-81
2023/10/05 03:04:58;;;;;;;0.60;0.60;;;9.00;99.90;;;;;;6282209;22;20247;-84
2023/10/05 03:07:25;;;;;;;0.65;0.65;;;9.00;99.90;;;;;;6281905;22;20171;-80
2023/10/05 03:09:59;;;;;;;0.80;0.80;;;9.20;99.90;;;;;;6281156;22;20426;-82
2023/10/05 03:12:28;;;;;;;0.90;0.90;;;9.00;99.90;;;;;;6284627;22;20186;-81
2023/10/05 03:14:56;;;;;;;0.57;0.57;;;9.00;99.90;;;;;;6281347;22;20432;-82
2023/10/05 03:17:26;;;;;;;0.40;0.40;;;9.10;99.90;;;;;;6280563;22;20433;-82
2023/10/05 03:19:54;;;;;;;0.70;0.70;;;9.10;99.90;;;;;;6280869;22;20182;-88
2023/10/05 03:22:23;;;;;;;1.05;1.00;;;9.20;99.90;;;;;;6280739;22;20187;-82
2023/10/05 03:24:53;;;;;;;1.40;1.30;;;9.30;99.90;;;;;;6281213;22;20167;-81
2023/10/05 03:27:22;;;;;;;12.50;1.70;;;9.40;99.90;;;;;;6280833;22;20190;-83
2023/10/05 03:30:06;;;;;;;0.50;0.50;;;9.40;99.90;;;;;;6279962;22;20187;-84
2023/10/05 03:32:35;;;;;;;1.63;1.52;;;9.30;99.90;;;;;;6280582;22;20255;-81
2023/10/05 03:35:08;;;;;;;1.35;1.33;;;9.30;99.90;;;;;;6280377;22;20183;-81
2023/10/05 03:37:41;;;;;;;0.57;0.57;;;9.40;99.90;;;;;;6278938;22;20614;-82
2023/10/05 03:40:22;;;;;;;1.80;1.50;;;9.30;99.90;;;;;;6279679;22;20197;-83
2023/10/05 03:42:57;;;;;;;0.80;0.80;;;9.30;99.90;;;;;;6278742;22;20190;-82
2023/10/05 03:45:26;;;;;;;2.55;1.83;;;9.30;99.90;;;;;;6280447;22;20167;-83
2023/10/05 03:47:53;;;;;;;0.70;0.70;;;9.20;99.90;;;;;;6279476;22;20186;-83
2023/10/05 03:50:21;;;;;;;0.82;0.82;;;9.20;99.90;;;;;;6280686;22;20357;-84
2023/10/05 03:52:48;;;;;;;1.02;1.02;;;9.20;99.90;;;;;;6279538;22;20190;-82
2023/10/05 03:55:18;;;;;;;2.15;1.98;;;9.30;99.90;;;;;;6280146;22;20434;-84
2023/10/05 03:57:46;;;;;;;0.80;0.80;;;9.20;99.90;;;;;;6279578;22;20222;-84
2023/10/05 04:00:23;;;;;;;1.77;1.67;;;9.20;99.90;;;;;;6280429;22;20228;-82
2023/10/05 04:02:52;;;;;;;1.90;1.75;;;9.20;99.90;;;;;;6279817;22;20194;-82
2023/10/05 04:05:21;;;;;;;0.60;0.60;;;9.20;99.90;;;;;;6281176;22;20374;-85
2023/10/05 04:07:50;;;;;;;0.85;0.82;;;9.20;99.90;;;;;;6254092;22;20209;-81
2023/10/05 04:10:21;;;;;;;0.75;0.75;;;9.30;99.90;;;;;;6279715;22;20182;-80
2023/10/05 04:12:51;;;;;;;1.02;0.88;;;9.30;99.90;;;;;;6280002;22;20166;-81
2023/10/05 04:15:20;;;;;;;2.28;2.15;;;9.30;99.90;;;;;;6280290;22;20159;-82
2023/10/05 04:17:50;;;;;;;0.60;0.60;;;9.40;99.90;;;;;;6278844;22;20873;-82
2023/10/05 04:20:21;;;;;;;1.35;1.25;;;9.40;99.90;;;;;;6279884;22;20253;-83
2023/10/05 04:22:49;;;;;;;2.25;2.15;;;9.40;99.90;;;;;;6281678;22;20183;-84
2023/10/05 04:25:16;;;;;;;4.22;1.70;;;9.40;99.90;;;;;;6282480;22;20183;-85
2023/10/05 04:27:47;;;;;;;0.60;0.60;;;9.40;99.90;;;;;;6287353;22;20174;-85
2023/10/05 04:30:21;;;;;;;1.35;1.35;;;9.40;99.90;;;;;;6302201;22;20151;-85
2023/10/05 04:32:49;;;;;;;13.00;3.15;;;9.40;99.90;;;;;;6301365;22;20186;-80
2023/10/05 04:35:23;;;;;;;0.70;0.70;;;9.40;99.90;;;;;;6299354;22;20178;-83
2023/10/05 04:37:50;;;;;;;0.88;0.88;;;9.40;99.90;;;;;;6292546;22;20205;-83
2023/10/05 04:40:22;;;;;;;0.60;0.60;;;9.40;99.90;;;;;;6282066;22;20189;-83
2023/10/05 04:42:50;;;;;;;1.20;1.20;;;9.30;99.90;;;;;;6280516;22;20167;-82
2023/10/05 04:45:20;;;;;;;0.70;0.70;;;9.30;99.90;;;;;;6279871;22;20186;-84
2023/10/05 04:47:49;;;;;;;0.60;0.60;;;9.30;99.90;;;;;;6253683;22;20191;-81
2023/10/05 04:50:26;;;;;;;1.48;1.35;;;9.30;99.90;;;;;;6279802;22;20437;-85
2023/10/05 04:52:54;;;;;;;1.48;1.38;;;9.30;99.90;;;;;;6288908;22;20179;-82
2023/10/05 04:55:31;;;;;;;3.50;1.73;;;9.30;99.90;;;;;;6300294;22;20243;-80
2023/10/05 05:01:28;;;;;;;0.82;0.82;;;9.20;99.90;;;;;;6243170;23;20194;-83
2023/10/05 05:03:56;;;;;;;1.70;1.65;;;9.30;99.90;;;;;;6247297;23;20179;-84
2023/10/05 05:06:27;;;;;;;1.02;1.02;;;9.20;99.90;;;;;;6268848;22;20194;-82
2023/10/05 05:08:54;;;;;;;2.40;2.25;;;9.20;99.90;;;;;;6257673;22;20163;-87
2023/10/05 05:11:21;;;;;;;1.60;1.55;;;9.20;99.90;;;;;;6281652;22;20191;-83
2023/10/05 05:13:49;;;;;;;0.70;0.70;;;9.30;99.90;;;;;;6253882;22;20279;-83
2023/10/05 05:16:16;;;;;;;0.60;0.60;;;9.30;99.90;;;;;;6256121;22;20170;-83
2023/10/05 05:18:43;;;;;;;1.58;1.50;;;9.30;99.90;;;;;;6279920;22;20203;-82
2023/10/05 05:21:11;;;;;;;1.23;1.23;;;9.30;99.90;;;;;;6251955;22;20184;-84
2023/10/05 05:23:39;;;;;;;1.98;1.60;;;9.40;99.90;;;;;;6252571;22;20175;-82
2023/10/05 05:26:10;;;;;;;3.13;2.53;;;9.50;99.90;;;;;;6254855;22;20182;-83
2023/10/05 05:28:38;;;;;;;1.83;1.48;;;9.50;99.90;;;;;;6282147;22;20685;-86
2023/10/05 05:31:16;;;;;;;0.70;0.70;;;9.60;99.90;;;;;;6280568;22;20222;-85
2023/10/05 05:33:44;;;;;;;2.30;2.15;;;9.60;99.90;;;;;;6280164;22;20179;-86
2023/10/05 05:36:13;;;;;;;1.23;1.23;;;9.60;99.90;;;;;;6280851;22;20183;-80
2023/10/05 05:38:40;;;;;;;1.60;1.25;;;9.60;99.90;;;;;;6278766;22;20214;-81
2023/10/05 05:41:19;;;;;;;1.23;1.23;;;9.70;99.90;;;;;;6279697;22;20174;-80
2023/10/05 05:43:47;;;;;;;2.03;1.80;;;9.90;99.90;;;;;;6253953;22;20174;-82
2023/10/05 05:46:13;;;;;;;1.05;1.05;;;9.90;99.90;;;;;;6255297;22;20182;-82
2023/10/05 05:48:48;;;;;;;0.60;0.60;;;10.00;99.90;;;;;;6281303;22;20270;-83
2023/10/05 05:51:17;;;;;;;2.17;2.05;;;10.10;99.90;;;;;;6281131;22;20165;-83
2023/10/05 05:53:47;;;;;;;1.65;1.50;;;10.20;99.90;;;;;;6280428;22;20183;-83
2023/10/05 05:56:18;;;;;;;1.52;1.35;;;10.30;99.90;;;;;;6254143;22;20199;-82
2023/10/05 05:58:50;;;;;;;2.10;2.00;;;10.30;99.90;;;;;;6281237;22;20187;-79
2023/10/05 06:01:19;;;;;;;0.75;0.75;;;10.50;99.90;;;;;;6281311;22;20356;-82
2023/10/05 06:03:49;;;;;;;1.35;1.35;;;10.40;99.90;;;;;;6282381;22;20343;-83
2023/10/05 06:06:19;;;;;;;0.98;0.98;;;10.40;99.90;;;;;;6282287;22;20210;-81
2023/10/05 06:08:49;;;;;;;0.70;0.70;;;10.40;99.90;;;;;;6281456;22;20269;-82
2023/10/05 06:11:16;;;;;;;1.20;1.20;;;10.30;99.90;;;;;;6281045;22;20215;-80
2023/10/05 06:13:45;;;;;;;1.42;1.33;;;10.40;99.90;;;;;;6281069;22;20238;-80
2023/10/05 06:16:14;;;;;;;2.65;2.10;;;10.40;99.90;;;;;;6280955;22;20197;-80
2023/10/05 06:18:43;;;;;;;2.67;2.47;;;10.50;99.90;;;;;;6252979;22;20264;-81
2023/10/05 06:21:11;;;;;;;1.55;1.45;;;10.60;99.90;;;;;;6280339;22;20182;-80
2023/10/05 06:23:38;;;;;;;1.15;1.13;;;10.80;99.90;;;;;;6278754;22;20190;-82
2023/10/05 06:26:06;;;;;;;0.80;0.80;;;11.10;99.90;;;;;;6282169;22;20257;-81
2023/10/05 06:28:33;;;;;;;0.70;0.70;;;11.30;99.90;;;;;;6280478;22;20506;-79
2023/10/05 06:31:01;;;;;;;2.55;2.35;;;11.50;99.90;;;;;;6280492;22;20238;-81
2023/10/05 06:33:28;;;;;;;1.10;1.10;;;11.60;99.90;;;;;;6282040;22;20570;-81
2023/10/05 06:35:55;;;;;;;0.85;0.85;;;11.80;99.90;;;;;;6255798;22;20183;-79
2023/10/05 06:38:23;;;;;;;0.98;0.98;;;12.00;99.90;;;;;;6282120;22;20207;-80
2023/10/05 06:40:51;;;;;;;1.45;1.38;;;12.20;99.90;;;;;;6282323;22;20190;-80
2023/10/05 06:43:18;;;;;;;1.83;1.73;;;12.30;99.90;;;;;;6282053;22;20494;-80
2023/10/05 06:45:48;;;;;;;0.60;0.60;;;12.60;99.90;;;;;;6284474;22;20197;-80
2023/10/05 06:48:15;;;;;;;1.00;1.00;;;12.80;99.90;;;;;;6284424;22;20243;-83
2023/10/05 06:50:44;;;;;;;0.90;0.90;;;12.90;99.90;;;;;;6260665;22;20186;-87
2023/10/05 06:53:11;;;;;;;0.70;0.70;;;13.10;99.90;;;;;;6261524;22;20210;-81
2023/10/05 06:55:39;;;;;;;0.70;0.70;;;13.20;99.90;;;;;;6270546;22;20173;-82
2023/10/05 06:58:07;;;;;;;1.07;1.07;;;13.30;99.90;;;;;;6271320;22;20214;-80
2023/10/05 07:00:34;;;;;;;0.90;0.90;;;13.30;99.90;;;;;;6303530;22;20427;-82
2023/10/05 07:03:06;;;;;;;1.67;1.57;;;13.30;99.90;;;;;;6303924;22;20167;-82
2023/10/05 07:05:33;;;;;;;1.00;1.00;;;13.30;99.90;;;;;;6303456;22;20376;-80
2023/10/05 07:08:01;;;;;;;0.80;0.80;;;13.30;99.90;;;;;;6303391;22;20210;-81
2023/10/05 07:10:28;;;;;;;0.80;0.80;;;13.40;99.90;;;;;;6302847;22;20394;-82
2023/10/05 07:12:55;;;;;;;1.40;1.40;;;13.50;99.90;;;;;;6303274;22;20381;-84
2023/10/05 07:15:25;;;;;;;0.70;0.70;;;13.70;99.90;;;;;;6301097;22;20185;-83
2023/10/05 07:17:54;;;;;;;1.00;1.00;;;13.80;99.90;;;;;;6274645;22;20426;-86
2023/10/05 07:20:23;;;;;;;0.70;0.70;;;14.10;99.90;;;;;;6273923;22;20660;-84
2023/10/05 07:22:49;;;;;;;1.30;1.30;;;14.40;99.90;;;;;;6297940;22;20415;-84
2023/10/05 07:25:19;;;;;;;1.27;1.27;;;15.00;99.90;;;;;;6266519;22;20409;-84
2023/10/05 07:27:49;;;;;;;0.70;0.70;;;15.40;99.90;;;;;;6285552;22;20709;-84
2023/10/05 07:30:16;;;;;;;2.30;1.20;;;16.00;99.90;;;;;;6284680;22;20396;-91
2023/10/05 07:32:44;;;;;;;0.83;0.83;;;16.70;99.90;;;;;;6285814;22;20367;-85
2023/10/05 07:35:23;;;;;;;0.80;0.80;;;17.00;99.90;;;;;;6285898;22;20394;-85
2023/10/05 07:37:51;;;;;;;1.10;1.10;;;16.80;99.90;;;;;;6259957;22;20484;-88
2023/10/05 07:40:18;;;;;;;1.00;1.00;;;16.80;99.90;;;;;;6264009;22;20370;-88
2023/10/05 07:42:46;;;;;;;1.10;1.10;;;16.70;99.90;;;;;;6286723;22;20408;-84
2023/10/05 07:45:13;;;;;;;2.23;2.03;;;16.70;99.90;;;;;;6287754;22;20393;-86
2023/10/05 07:47:42;;;;;;;1.30;1.30;;;16.70;99.90;;;;;;6290000;22;20383;-84
2023/10/05 07:50:12;;;;;;;1.87;1.77;;;16.60;99.90;;;;;;6287989;22;20750;-87
2023/10/05 07:52:44;;;;;;;0.83;0.83;;;16.50;99.90;;;;;;6289028;22;20355;-84
2023/10/05 07:55:11;;;;;;;2.07;1.97;;;16.50;99.90;;;;;;6287124;22;20411;-82
2023/10/05 07:57:40;;;;;;;0.90;0.90;;;16.30;99.90;;;;;;6287257;22;20428;-87
2023/10/05 08:00:13;;;;;;;1.10;1.10;;;16.30;99.90;;;;;;6285094;22;20378;-88
2023/10/05 08:02:45;;;;;;;2.33;2.23;;;16.70;99.90;;;;;;6261377;22;20578;-83
2023/10/05 08:05:13;;;;;;;0.80;0.80;;;17.00;99.90;;;;;;6258470;22;20440;-89
2023/10/05 08:07:41;;;;;;;1.90;1.73;;;16.90;99.90;;;;;;6283007;22;20416;-85
2023/10/05 08:10:18;;;;;;;2.50;2.40;;;17.30;99.90;;;;;;6284137;22;20429;-81
2023/10/05 08:12:47;;;;;;;1.63;1.53;;;17.80;99.90;;;;;;6280250;22;20445;-80
2023/10/05 08:15:18;;;;;;;2.60;1.57;;;18.10;99.90;;;;;;6280538;22;20404;-83
2023/10/05 08:17:49;;;;;;;0.90;0.90;;;18.20;99.90;;;;;;6279949;22;20847;-79
2023/10/05 08:20:20;;;;;;;0.90;0.90;;;18.60;99.90;;;;;;6281008;22;20404;-83
2023/10/05 08:22:56;;;;;;;0.80;0.80;;;19.00;99.90;;;;;;6282353;22;20354;-85
2023/10/05 08:25:36;;;;;;;1.30;1.30;;;18.70;99.90;;;;;;6283073;22;20408;-81
2023/10/05 08:28:04;;;;;;;2.03;1.93;;;18.30;99.90;;;;;;6284606;22;20466;-84
2023/10/05 08:30:41;;;;;;;0.80;0.80;;;17.60;99.90;;;;;;6284606;22;20374;-81
2023/10/05 08:33:15;;;;;;;0.80;0.80;;;17.60;99.90;;;;;;6260903;22;20378;-82
2023/10/05 08:35:42;;;;;;;2.80;1.93;;;17.80;99.90;;;;;;6283009;22;20363;-80
2023/10/05 08:38:15;;;;;;;1.03;1.03;;;18.40;99.90;;;;;;6283789;22;20518;-89
2023/10/05 08:40:45;;;;;;;1.10;1.10;;;19.00;99.90;;;;;;6285217;22;20811;-83
2023/10/05 08:43:16;;;;;;;1.43;1.43;;;19.40;99.90;;;;;;6285593;22;20389;-85
2023/10/05 08:45:47;;;;;;;1.10;1.10;;;19.90;99.90;;;;;;6260518;22;20460;-86
2023/10/05 08:48:34;;;;;;;1.23;1.23;;;19.80;99.90;;;;;;6255882;22;20388;-85
2023/10/05 08:51:09;;;;;;;0.90;0.90;;;19.80;99.90;;;;;;6285294;22;20383;-84
2023/10/05 08:53:52;;;;;;;5.73;5.23;;;19.80;99.90;;;;;;6256811;22;20383;-81
2023/10/05 08:56:20;;;;;;;3.43;3.20;;;20.00;99.90;;;;;;6284330;22;20663;-87
2023/10/05 08:58:48;;;;;;;1.53;1.47;;;20.40;99.90;;;;;;6283174;22;20641;-82
2023/10/05 09:01:29;;;;;;;1.00;1.00;;;20.60;99.90;;;;;;6282840;22;20471;-84
2023/10/05 09:04:01;;;;;;;1.57;1.40;;;19.80;99.90;;;;;;6300597;22;20373;-82
2023/10/05 09:06:30;;;;;;;2.07;1.97;;;19.20;99.90;;;;;;6302231;22;20360;-85
2023/10/05 09:11:33;;;;;;;1.20;1.20;;;19.30;99.90;;;;;;6270361;22;20444;-88
2023/10/05 09:14:18;;;;;;;8.03;4.30;;;19.40;99.90;;;;;;6256138;23;20384;-85
2023/10/05 09:16:47;;;;;;;1.00;1.00;;;19.40;99.90;;;;;;6233750;23;20367;-86
2023/10/05 09:19:29;;;;;;;1.27;1.27;;;19.20;99.90;;;;;;6259280;23;20475;-83
2023/10/05 09:24:26;;;;;;;1.47;1.37;;;18.80;99.90;;;;;;6252920;23;20642;-83
2023/10/05 09:27:13;;;;;;;0.90;0.90;;;18.90;99.90;;;;;;6255466;23;20431;-84
2023/10/05 09:29:43;;;;;;;1.07;1.07;;;18.90;99.90;;;;;;6256281;23;20913;-84
2023/10/05 09:32:25;;;;;;;3.53;3.30;;;19.20;99.90;;;;;;6233568;23;20386;-82
2023/10/05 09:34:56;;;;;;;1.20;1.20;;;19.40;99.90;;;;;;6228075;23;20360;-82
2023/10/05 09:37:27;;;;;;;1.13;1.13;;;19.20;99.90;;;;;;6259489;23;20397;-85
2023/10/05 09:40:00;;;;;;;1.10;1.10;;;18.90;99.90;;;;;;6257880;23;20519;-85
2023/10/05 09:42:35;;;;;;;0.80;0.80;;;18.50;99.90;;;;;;6258252;23;20357;-84
2023/10/05 09:45:12;;;;;;;2.70;2.50;;;18.00;99.90;;;;;;6230779;23;20351;-86
2023/10/05 09:47:42;;;;;;;1.37;1.33;;;18.10;99.90;;;;;;6254194;23;20379;-87
2023/10/05 09:50:12;;;;;;;1.27;1.27;;;18.10;99.90;;;;;;6255087;23;20372;-83
2023/10/05 09:52:46;;;;;;;1.37;1.37;;;18.10;99.90;;;;;;6228298;23;20399;-86
2023/10/05 09:55:17;;;;;;;1.20;1.20;;;18.30;99.90;;;;;;6256438;23;20377;-82
2023/10/05 09:57:52;;;;;;;1.83;1.73;;;18.50;99.90;;;;;;6254043;23;20352;-85
2023/10/05 10:02:57;;;;;;;2.17;2.07;;;19.20;99.90;;;;;;6254342;23;20455;-87
2023/10/05 10:05:36;;;;;;;1.20;1.20;;;18.90;99.90;;;;;;6226813;23;20527;-84
2023/10/05 10:08:13;;;;;;;1.00;1.00;;;19.10;99.90;;;;;;6250315;23;20382;-85
2023/10/05 10:11:09;;;;;;;1.67;1.57;;;19.00;99.90;;;;;;6227923;23;20429;-85
2023/10/05 10:13:37;;;;;;;1.37;1.30;;;18.90;99.90;;;;;;6256027;23;20682;-89
2023/10/05 10:16:16;;;;;;;1.13;1.13;;;18.80;99.90;;;;;;6228008;23;20405;-85
2023/10/05 10:18:46;;;;;;;0.90;0.90;;;18.80;99.90;;;;;;6251844;23;20425;-79
2023/10/05 10:21:24;;;;;;;1.63;1.53;;;18.70;99.90;;;;;;6251560;23;20990;-89
2023/10/05 10:24:06;;;;;;;1.07;1.07;;;18.80;99.90;;;;;;6255147;23;20806;-85
2023/10/05 10:26:45;;;;;;;1.30;1.30;;;19.00;99.90;;;;;;6228650;23;20347;-84
2023/10/05 10:29:16;;;;;;;1.23;1.23;;;19.20;99.90;;;;;;6256352;23;20375;-83
2023/10/05 10:31:48;;;;;;;1.30;1.30;;;19.10;99.90;;;;;;6264132;22;20756;-82
2023/10/05 10:34:52;;;;;;;1.00;1.00;;;19.30;99.90;;;;;;6260368;23;20386;-80
2023/10/05 10:37:55;;;;;;;2.03;1.93;;;18.90;99.90;;;;;;6250755;23;20355;-81
2023/10/05 10:45:41;;;;;;;0.80;0.80;;;18.60;99.90;;;;;;6249223;23;20379;-80
2023/10/05 10:48:13;;;;;;;2.50;2.30;;;18.90;99.90;;;;;;6250161;23;20360;-80
2023/10/05 10:50:47;;;;;;;1.97;1.77;;;19.10;99.90;;;;;;6224379;23;20387;-80
2023/10/05 10:53:16;;;;;;;0.80;0.80;;;19.10;99.90;;;;;;6252629;23;20401;-78
2023/10/05 10:56:04;;;;;;;0.93;0.93;;;19.10;99.90;;;;;;6251667;23;20368;-79
2023/10/05 10:58:32;;;;;;;0.80;0.80;;;18.90;99.90;;;;;;6250977;23;20493;-83
2023/10/05 11:01:28;;;;;;;2.03;1.93;;;18.70;99.90;;;;;;6252865;23;20443;-83
2023/10/05 11:04:04;;;;;;;1.83;1.73;;;18.70;99.90;;;;;;6263151;23;20378;-80
2023/10/05 11:06:37;;;;;;;2.00;1.47;;;18.60;99.90;;;;;;6234805;23;20364;-79
2023/10/05 11:09:10;;;;;;;1.40;1.40;;;18.60;99.90;;;;;;6261492;23;20359;-81
2023/10/05 11:11:37;;;;;;;1.63;1.60;;;18.70;99.90;;;;;;6254772;23;20895;-81
2023/10/05 11:14:08;;;;;;;0.90;0.90;;;18.90;99.90;;;;;;6262655;23;20399;-82
2023/10/05 11:16:38;;;;;;;0.80;0.80;;;18.90;99.90;;;;;;6255339;23;20378;-82
2023/10/05 11:19:12;;;;;;;2.37;2.20;;;18.80;99.90;;;;;;6253622;23;20735;-81
2023/10/05 11:21:47;;;;;;;1.87;1.77;;;18.50;99.90;;;;;;6225535;23;20419;-81
2023/10/05 11:24:18;;;;;;;1.10;1.10;;;18.60;99.90;;;;;;6250381;23;20387;-83
2023/10/05 11:27:05;;;;;;;1.43;1.37;;;18.60;99.90;;;;;;6252385;23;20667;-81
2023/10/05 11:29:43;;;;;;;0.90;0.90;;;18.70;99.90;;;;;;6254566;23;20352;-80
2023/10/05 11:32:20;;;;;;;1.00;1.00;;;19.00;99.90;;;;;;6235441;23;20383;-83
2023/10/05 11:35:13;;;;;;;1.13;1.13;;;19.10;99.90;;;;;;6241106;23;20389;-81
2023/10/05 11:37:58;;;;;;;1.97;1.90;;;19.30;99.90;;;;;;6253448;23;20360;-86
2023/10/05 11:40:49;;;;;;;1.40;1.33;;;19.50;99.90;;;;;;6251596;23;20483;-85
2023/10/05 11:43:34;;;;;;;0.90;0.90;;;19.70;99.90;;;;;;6228788;23;20356;-82
2023/10/05 11:46:17;;;;;;;0.80;0.80;;;19.80;99.90;;;;;;6251060;23;20400;-83
2023/10/05 11:48:56;;;;;;;1.57;1.47;;;19.40;99.90;;;;;;6252094;23;20420;-83
2023/10/05 11:51:36;;;;;;;1.43;1.43;;;19.40;99.90;;;;;;6252468;23;20359;-85
2023/10/05 11:54:04;;;;;;;0.83;0.83;;;19.40;99.90;;;;;;6251212;23;20381;-80
2023/10/05 11:56:31;;;;;;;0.87;0.87;;;19.40;99.90;;;;;;6252697;23;20626;-84
2023/10/05 11:59:02;;;;;;;2.40;1.87;;;19.40;99.90;;;;;;6225512;23;20429;-86
2023/10/05 12:01:32;;;;;;;0.90;0.90;;;19.50;99.90;;;;;;6252819;23;20408;-81
2023/10/05 12:04:03;;;;;;;0.80;0.80;;;19.60;99.90;;;;;;6254214;23;20373;-86
2023/10/05 12:06:31;;;;;;;0.80;0.80;;;19.50;99.90;;;;;;6227723;23;20373;-83
2023/10/05 12:09:27;;;;;;;1.70;1.60;;;19.40;99.90;;;;;;6253513;23;20405;-80
2023/10/05 12:11:54;;;;;;;0.83;0.83;;;19.00;99.90;;;;;;6255765;23;20413;-85
2023/10/05 12:14:21;;;;;;;1.77;1.67;;;18.80;99.90;;;;;;6253813;23;20715;-82
2023/10/05 12:16:48;;;;;;;3.27;2.70;;;18.80;99.90;;;;;;6254417;23;20403;-82
2023/10/05 12:19:27;;;;;;;0.80;0.80;;;18.90;99.90;;;;;;6253649;23;20450;-82
2023/10/05 12:22:13;;;;;;;0.90;0.90;;;18.70;99.90;;;;;;6229654;23;20396;-86
2023/10/05 12:24:41;;;;;;;1.50;1.40;;;18.70;99.90;;;;;;6270621;23;20431;-83
2023/10/05 12:27:20;;;;;;;1.67;1.57;;;18.70;99.90;;;;;;6271181;22;20371;-81
2023/10/05 12:29:48;;;;;;;1.23;1.23;;;18.80;99.90;;;;;;6270158;22;20419;-81
2023/10/05 12:32:17;;;;;;;0.80;0.80;;;18.70;99.90;;;;;;6261856;23;20408;-83
2023/10/05 12:34:48;;;;;;;0.83;0.83;;;18.90;99.90;;;;;;6257978;23;20372;-84
2023/10/05 12:37:19;;;;;;;0.80;0.80;;;18.70;99.90;;;;;;6257139;23;20424;-84
2023/10/05 12:39:47;;;;;;;1.63;1.27;;;18.80;99.90;;;;;;6256613;23;20415;-82
2023/10/05 12:42:18;;;;;;;1.37;1.37;;;18.70;99.90;;;;;;6251092;23;20541;-82
2023/10/05 12:44:48;;;;;;;1.00;1.00;;;18.60;99.90;;;;;;6225547;23;20403;-85
2023/10/05 12:47:14;;;;;;;0.90;0.90;;;18.70;99.90;;;;;;6250463;23;20638;-80
2023/10/05 12:49:41;;;;;;;1.00;1.00;;;18.70;99.90;;;;;;6250079;23;20372;-80
2023/10/05 12:52:08;;;;;;;1.13;1.13;;;18.50;99.90;;;;;;6249773;23;20375;-80
2023/10/05 12:54:39;;;;;;;0.80;0.80;;;18.50;99.90;;;;;;6249996;23;20416;-81
2023/10/05 12:57:10;;;;;;;2.43;2.23;;;18.50;99.90;;;;;;6249939;23;20501;-83
2023/10/05 12:59:48;;;;;;;1.10;1.10;;;18.50;99.90;;;;;;6250730;23;20391;-81
2023/10/05 13:02:15;;;;;;;2.13;2.03;;;18.40;99.90;;;;;;6250597;23;20383;-87
2023/10/05 13:04:43;;;;;;;1.00;1.00;;;18.40;99.90;;;;;;6248796;23;20746;-80
2023/10/05 13:07:11;;;;;;;0.80;0.80;;;18.40;99.90;;;;;;6250921;23;20997;-82
2023/10/05 13:09:39;;;;;;;1.97;1.87;;;18.30;99.90;;;;;;6251480;23;20371;-80
2023/10/05 13:12:08;;;;;;;1.43;1.43;;;18.30;99.90;;;;;;6250868;23;20372;-85
2023/10/05 13:14:35;;;;;;;0.90;0.90;;;18.50;99.90;;;;;;6225023;23;20391;-81
2023/10/05 13:17:02;;;;;;;0.80;0.80;;;18.50;99.90;;;;;;6200854;23;20422;-82
2023/10/05 13:19:32;;;;;;;0.87;0.87;;;18.50;99.90;;;;;;6229391;23;20402;-83
2023/10/05 13:22:06;;;;;;;0.90;0.90;;;18.60;99.90;;;;;;6256041;23;20376;-87
2023/10/05 13:24:33;;;;;;;0.80;0.80;;;18.50;99.90;;;;;;6250734;23;20348;-81
2023/10/05 13:27:01;;;;;;;0.70;0.70;;;18.50;99.90;;;;;;6251951;23;20379;-81
2023/10/05 13:29:35;;;;;;;1.20;1.20;;;18.40;99.90;;;;;;6251402;23;20360;-83
2023/10/05 13:32:05;;;;;;;0.70;0.70;;;18.40;99.90;;;;;;6252380;23;20735;-85
2023/10/05 13:34:33;;;;;;;0.80;0.80;;;18.30;99.90;;;;;;6226097;23;20374;-84
2023/10/05 13:37:00;;;;;;;0.80;0.80;;;18.30;99.90;;;;;;6252782;23;20363;-81
2023/10/05 13:39:28;;;;;;;0.80;0.80;;;18.20;99.90;;;;;;6253830;23;20406;-81
2023/10/05 13:42:05;;;;;;;4.77;1.37;;;18.30;99.90;;;;;;6269793;22;20408;-81
2023/10/05 13:44:32;;;;;;;1.10;1.10;;;18.30;99.90;;;;;;6270427;22;20380;-80